createdAt,value
2017-07-28T08:04:05.066Z,17.9
2017-07-28T08:05:06.472Z,18.0
2017-07-28T08:06:28.426Z,18.2
2017-07-28T08:07:29.833Z,18.3
2017-07-28T08:08:51.786Z,18.5
2017-07-28T08:09:53.193Z,18.6
2017-07-28T08:11:15.146Z,18.6
2017-07-28T08:12:16.550Z,18.6
2017-07-28T08:13:38.506Z,18.6
2017-07-28T08:14:39.913Z,18.7
2017-07-28T08:16:01.869Z,18.7
2017-07-28T08:17:03.282Z,18.7
2017-07-28T08:18:25.026Z,18.8
2017-07-28T08:19:26.432Z,18.8
2017-07-28T08:20:48.388Z,18.9
2017-07-28T08:21:49.795Z,18.9
2017-07-28T08:23:11.746Z,18.8
2017-07-28T08:24:13.151Z,18.9
2017-07-28T08:25:35.143Z,18.9
2017-07-28T08:26:36.595Z,18.9
2017-07-28T08:27:58.467Z,19.1
2017-07-28T08:28:59.871Z,19.1
2017-07-28T08:30:21.829Z,19.1
2017-07-28T08:31:23.232Z,19.1
2017-07-28T08:32:45.199Z,19.2
2017-07-28T08:33:46.606Z,19.2
2017-07-28T08:35:08.550Z,19.2
2017-07-28T08:36:09.958Z,19.2
2017-07-28T08:37:31.867Z,19.1
2017-07-28T08:38:33.275Z,19.1
2017-07-28T08:39:55.275Z,19.2
2017-07-28T08:40:56.689Z,19.2
2017-07-28T08:41:58.327Z,19.3
2017-07-28T08:42:59.736Z,19.3
2017-07-28T08:44:02.232Z,19.4
2017-07-28T08:45:03.641Z,19.3
2017-07-28T08:46:05.050Z,19.3
2017-07-28T08:47:06.557Z,19.3
2017-07-28T08:48:07.964Z,19.3
2017-07-28T08:49:09.374Z,19.4
2017-07-28T08:50:10.874Z,19.5
2017-07-28T08:51:12.280Z,19.4
2017-07-28T08:52:13.755Z,19.6
2017-07-28T08:53:15.175Z,19.9
2017-07-28T08:54:16.840Z,19.9
2017-07-28T08:55:18.299Z,19.9
2017-07-28T08:56:19.928Z,20.0
2017-07-28T08:57:21.338Z,20.0
2017-07-28T08:58:22.806Z,20.1
2017-07-28T08:59:24.218Z,20.1
2017-07-28T09:00:25.687Z,20.3
2017-07-28T09:01:27.101Z,20.3
2017-07-28T09:02:28.571Z,20.5
2017-07-28T09:03:29.973Z,20.5
2017-07-28T09:04:31.448Z,20.4
2017-07-28T09:05:32.862Z,20.4
2017-07-28T09:06:34.330Z,20.4
2017-07-28T09:07:35.742Z,20.3
2017-07-28T09:08:37.240Z,20.3
2017-07-28T09:09:38.647Z,20.4
2017-07-28T09:10:40.260Z,20.5
2017-07-28T09:11:41.672Z,20.6
2017-07-28T09:12:43.178Z,20.7
2017-07-28T09:13:44.588Z,20.8
2017-07-28T09:14:46.058Z,20.9
2017-07-28T09:15:47.475Z,20.9
2017-07-28T09:16:48.939Z,20.9
2017-07-28T09:17:50.347Z,20.9
2017-07-28T09:18:51.819Z,21.0
2017-07-28T09:19:53.230Z,21.1
2017-07-28T09:20:54.643Z,21.1
2017-07-28T09:21:56.137Z,21.1
2017-07-28T09:22:57.549Z,21.2
2017-07-28T09:23:58.962Z,21.2
2017-07-28T09:25:00.453Z,21.1
2017-07-28T09:26:01.870Z,21.1
2017-07-28T09:27:03.344Z,21.0
2017-07-28T09:28:04.756Z,20.9
2017-07-28T09:29:06.225Z,20.9
2017-07-28T09:30:07.639Z,20.9
2017-07-28T09:31:09.102Z,21.0
2017-07-28T09:32:10.509Z,21.2
2017-07-28T09:33:11.982Z,21.3
2017-07-28T09:34:13.417Z,21.3
2017-07-28T09:35:14.867Z,21.2
2017-07-28T09:36:16.280Z,21.2
2017-07-28T09:37:17.745Z,21.2
2017-07-28T09:38:19.154Z,21.2
2017-07-28T09:39:20.625Z,21.2
2017-07-28T09:40:22.058Z,21.3
2017-07-28T09:41:23.712Z,21.4
2017-07-28T09:42:25.123Z,21.7
2017-07-28T09:43:26.592Z,21.9
2017-07-28T09:44:28.012Z,22.0
2017-07-28T09:45:29.418Z,22.0
2017-07-28T09:46:30.916Z,22.2
2017-07-28T09:47:32.325Z,22.2
2017-07-28T09:48:33.737Z,22.2
2017-07-28T09:49:35.233Z,22.2
2017-07-28T09:50:36.649Z,22.1
2017-07-28T09:51:38.067Z,22.1
2017-07-28T09:52:39.554Z,22.1
2017-07-28T09:53:40.966Z,22.2
2017-07-28T09:54:42.413Z,22.2
2017-07-28T09:55:43.827Z,22.3
2017-07-28T09:56:45.244Z,22.1
2017-07-28T09:57:46.728Z,22.0
2017-07-28T09:58:48.142Z,22.2
2017-07-28T09:59:49.558Z,22.1
2017-07-28T10:00:51.053Z,22.1
2017-07-28T10:01:52.464Z,22.1
2017-07-28T10:02:53.882Z,22.0
2017-07-28T10:03:55.369Z,22.1
2017-07-28T10:04:56.785Z,22.1
2017-07-28T10:05:58.203Z,22.4
2017-07-28T10:06:59.693Z,22.5
2017-07-28T10:08:01.111Z,22.7
2017-07-28T10:09:02.524Z,22.8
2017-07-28T10:10:04.028Z,23.1
2017-07-28T10:11:05.445Z,23.2
2017-07-28T10:12:06.862Z,23.2
2017-07-28T10:13:08.335Z,23.4
2017-07-28T10:14:09.754Z,23.6
2017-07-28T10:15:11.179Z,23.7
2017-07-28T10:16:12.668Z,23.8
2017-07-28T10:17:14.087Z,23.8
2017-07-28T10:18:15.525Z,23.8
2017-07-28T10:19:16.929Z,24.0
2017-07-28T10:20:18.420Z,24.2
2017-07-28T10:21:19.833Z,24.4
2017-07-28T10:22:21.250Z,24.5
2017-07-28T10:23:22.746Z,24.5
2017-07-28T10:24:24.166Z,24.5
2017-07-28T10:25:25.618Z,24.6
2017-07-28T10:26:27.076Z,24.9
2017-07-28T10:27:28.481Z,24.9
2017-07-28T10:28:29.894Z,24.9
2017-07-28T10:29:31.384Z,25.1
2017-07-28T10:30:32.801Z,25.2
2017-07-28T10:31:34.220Z,25.3
2017-07-28T10:32:35.705Z,25.3
2017-07-28T10:33:37.122Z,25.3
2017-07-28T10:34:38.586Z,25.2
2017-07-28T10:35:40.001Z,25.1
2017-07-28T10:36:41.417Z,25.2
2017-07-28T10:37:42.908Z,25.3
2017-07-28T10:38:44.324Z,25.5
2017-07-28T10:39:45.739Z,25.6
2017-07-28T10:40:47.227Z,25.4
2017-07-28T10:41:48.642Z,25.2
2017-07-28T10:42:50.054Z,25.1
2017-07-28T10:43:51.548Z,25.0
2017-07-28T10:44:52.968Z,24.9
2017-07-28T10:45:54.383Z,24.9
2017-07-28T10:46:55.872Z,25.1
2017-07-28T10:47:57.287Z,25.1
2017-07-28T10:48:58.753Z,25.0
2017-07-28T10:50:00.171Z,25.0
2017-07-28T10:51:01.635Z,25.2
2017-07-28T10:52:03.052Z,25.5
2017-07-28T10:53:04.518Z,25.6
2017-07-28T10:54:05.935Z,25.5
2017-07-28T10:55:07.395Z,25.5
2017-07-28T10:56:09.117Z,25.5
2017-07-28T10:57:10.537Z,25.3
2017-07-28T10:58:12.125Z,25.0
2017-07-28T10:59:13.537Z,24.9
2017-07-28T11:00:14.956Z,24.8
2017-07-28T11:01:16.452Z,24.6
2017-07-28T11:02:17.863Z,24.5
2017-07-28T11:03:19.339Z,24.3
2017-07-28T11:04:20.744Z,24.1
2017-07-28T11:05:22.208Z,24.0
2017-07-28T11:06:23.624Z,23.8
2017-07-28T11:07:25.097Z,23.7
2017-07-28T11:08:26.505Z,23.7
2017-07-28T11:09:28.032Z,23.5
2017-07-28T11:10:29.451Z,23.4
2017-07-28T11:11:31.061Z,23.3
2017-07-28T11:12:32.467Z,23.2
2017-07-28T11:13:33.944Z,23.1
2017-07-28T11:14:35.356Z,22.9
2017-07-28T11:15:36.822Z,22.9
2017-07-28T11:16:38.236Z,22.8
2017-07-28T11:17:39.648Z,22.9
2017-07-28T11:18:41.148Z,22.8
2017-07-28T11:19:42.557Z,22.9
2017-07-28T11:20:43.970Z,22.7
2017-07-28T11:21:45.470Z,22.8
2017-07-28T11:22:46.878Z,22.8
2017-07-28T11:23:48.289Z,22.7
2017-07-28T11:24:49.787Z,22.6
2017-07-28T11:25:51.192Z,22.4
2017-07-28T11:26:52.603Z,22.5
2017-07-28T11:27:55.960Z,22.3
2017-07-28T11:28:57.922Z,22.3
2017-07-28T11:29:59.918Z,22.3
2017-07-28T11:31:02.249Z,22.3
2017-07-28T11:32:04.407Z,22.3
2017-07-28T11:33:05.815Z,22.2
2017-07-28T11:34:07.266Z,22.2
2017-07-28T11:35:08.673Z,22.2
2017-07-28T11:36:10.087Z,22.1
2017-07-28T11:37:11.577Z,22.0
2017-07-28T11:38:12.986Z,21.9
2017-07-28T11:39:14.396Z,21.9
2017-07-28T11:40:15.897Z,21.9
2017-07-28T11:41:17.311Z,21.8
2017-07-28T11:42:18.718Z,21.8
2017-07-28T11:43:20.217Z,21.8
2017-07-28T11:44:21.626Z,21.9
2017-07-28T11:45:23.053Z,21.9
2017-07-28T11:46:24.620Z,21.8
2017-07-28T11:47:26.022Z,21.9
2017-07-28T11:48:27.625Z,21.9
2017-07-28T11:49:29.034Z,21.8
2017-07-28T11:50:30.514Z,21.9
2017-07-28T11:51:31.916Z,21.9
2017-07-28T11:52:33.323Z,21.8
2017-07-28T11:53:34.827Z,21.8
2017-07-28T11:54:36.237Z,21.8
2017-07-28T11:55:37.679Z,21.9
2017-07-28T11:56:39.153Z,22.0
2017-07-28T11:57:40.565Z,22.1
2017-07-28T11:58:42.035Z,22.1
2017-07-28T11:59:43.446Z,22.2
2017-07-28T12:00:44.920Z,22.3
2017-07-28T12:01:46.325Z,22.3
2017-07-28T12:02:47.764Z,22.5
2017-07-28T12:03:49.239Z,22.6
2017-07-28T12:04:50.663Z,22.5
2017-07-28T12:05:52.081Z,22.7
2017-07-28T12:06:53.573Z,23.2
2017-07-28T12:07:54.997Z,23.5
2017-07-28T12:08:56.449Z,23.6
2017-07-28T12:09:57.901Z,23.9
2017-07-28T12:10:59.527Z,24.5
2017-07-28T12:12:00.945Z,26.2
2017-07-28T12:13:02.377Z,27.2
2017-07-28T12:14:03.851Z,27.4
2017-07-28T12:15:05.274Z,28.7
2017-07-28T12:16:06.755Z,30.1
2017-07-28T12:17:08.410Z,31.0
2017-07-28T12:18:09.833Z,30.6
2017-07-28T12:19:12.280Z,29.4
2017-07-28T12:20:13.709Z,29.1
2017-07-28T12:21:15.206Z,29.1
2017-07-28T12:22:16.579Z,30.3
2017-07-28T12:23:18.458Z,31.1
2017-07-28T12:24:19.883Z,32.1
2017-07-28T12:25:22.358Z,32.5
2017-07-28T12:26:23.776Z,32.2
2017-07-28T12:27:25.265Z,31.7
2017-07-28T12:28:26.678Z,31.2
2017-07-28T12:29:28.136Z,30.2
2017-07-28T12:30:29.547Z,29.2
2017-07-28T12:31:30.996Z,29.8
2017-07-28T12:32:32.419Z,29.9
2017-07-28T12:33:33.880Z,30.0
2017-07-28T12:34:35.322Z,29.2
2017-07-28T12:35:36.761Z,29.0
2017-07-28T12:36:38.179Z,29.6
2017-07-28T12:37:39.646Z,29.6
2017-07-28T12:38:41.440Z,30.2
2017-07-28T12:39:42.978Z,30.8
2017-07-28T12:40:44.386Z,30.9
2017-07-28T12:41:46.027Z,30.5
2017-07-28T12:42:47.444Z,29.9
2017-07-28T12:43:48.862Z,29.5
2017-07-28T12:44:50.338Z,29.1
2017-07-28T12:45:51.752Z,28.9
2017-07-28T12:46:53.197Z,28.7
2017-07-28T12:47:54.659Z,28.4
2017-07-28T12:48:56.073Z,28.1
2017-07-28T12:49:57.944Z,28.9
2017-07-28T12:50:59.364Z,30.3
2017-07-28T12:52:00.933Z,29.6
2017-07-28T12:53:02.434Z,28.8
2017-07-28T12:54:03.851Z,28.1
2017-07-28T12:55:05.451Z,27.6
2017-07-28T12:56:06.866Z,27.1
2017-07-28T12:57:08.281Z,26.7
2017-07-28T12:58:09.977Z,26.4
2017-07-28T12:59:11.417Z,26.0
2017-07-28T13:00:13.062Z,25.8
2017-07-28T13:01:14.486Z,25.5
2017-07-28T13:02:16.147Z,25.3
2017-07-28T13:03:17.557Z,25.1
2017-07-28T13:04:19.365Z,24.9
2017-07-28T13:05:21.084Z,24.8
2017-07-28T13:06:22.499Z,24.6
2017-07-28T13:07:23.907Z,24.4
2017-07-28T13:08:25.609Z,24.2
2017-07-28T13:09:27.015Z,24.0
2017-07-28T13:10:28.424Z,23.9
2017-07-28T13:11:30.168Z,23.8
2017-07-28T13:12:31.586Z,23.6
2017-07-28T13:13:32.980Z,23.6
2017-07-28T13:14:34.667Z,23.5
2017-07-28T13:15:36.065Z,23.4
2017-07-28T13:16:37.475Z,23.3
2017-07-28T13:17:39.188Z,23.2
2017-07-28T13:18:40.900Z,23.1
2017-07-28T13:19:42.313Z,23.0
2017-07-28T13:20:43.950Z,22.9
2017-07-28T13:21:45.370Z,23.0
2017-07-28T13:22:46.777Z,22.9
2017-07-28T13:23:48.481Z,23.0
2017-07-28T13:24:49.896Z,23.1
2017-07-28T13:25:51.537Z,23.2
2017-07-28T13:26:52.940Z,23.3
2017-07-28T13:27:54.670Z,23.4
2017-07-28T13:28:56.077Z,23.7
2017-07-28T13:29:57.701Z,23.7
2017-07-28T13:30:59.108Z,23.7
2017-07-28T13:32:00.793Z,23.7
2017-07-28T13:33:02.206Z,23.7
2017-07-28T13:34:03.873Z,23.7
2017-07-28T13:35:05.287Z,23.7
2017-07-28T13:36:06.955Z,23.5
2017-07-28T13:37:08.748Z,23.5
2017-07-28T13:38:10.993Z,23.5
2017-07-28T13:39:12.875Z,23.3
2017-07-28T13:40:14.253Z,23.2
2017-07-28T13:41:15.825Z,23.1
2017-07-28T13:42:17.207Z,23.0
2017-07-28T13:43:18.622Z,22.9
2017-07-28T13:44:20.325Z,22.8
2017-07-28T13:45:21.730Z,22.7
2017-07-28T13:46:23.147Z,22.6
2017-07-28T13:47:24.856Z,22.6
2017-07-28T13:48:26.292Z,22.6
2017-07-28T13:49:27.697Z,22.5
2017-07-28T13:50:29.406Z,22.5
2017-07-28T13:51:30.812Z,22.5
2017-07-28T13:52:32.457Z,22.6
2017-07-28T13:53:33.872Z,22.5
2017-07-28T13:54:35.577Z,22.6
2017-07-28T13:55:37.014Z,22.5
2017-07-28T13:56:39.032Z,22.6
2017-07-28T13:57:40.440Z,22.7
2017-07-28T13:58:42.164Z,22.7
2017-07-28T13:59:43.594Z,22.8
2017-07-28T14:00:45.232Z,22.8
2017-07-28T14:01:46.645Z,22.7
2017-07-28T14:02:48.294Z,22.7
2017-07-28T14:03:49.703Z,22.8
2017-07-28T14:04:51.378Z,22.8
2017-07-28T14:05:53.089Z,22.8
2017-07-28T14:06:54.668Z,22.6
2017-07-28T14:07:56.100Z,22.7
2017-07-28T14:08:57.513Z,22.6
2017-07-28T14:09:59.120Z,22.6
2017-07-28T14:11:00.528Z,22.6
2017-07-28T14:12:01.967Z,22.5
2017-07-28T14:13:03.447Z,22.6
2017-07-28T14:14:04.877Z,22.5
2017-07-28T14:15:06.312Z,22.6
2017-07-28T14:16:07.759Z,22.6
2017-07-28T14:17:09.172Z,22.6
2017-07-28T14:18:10.586Z,22.5
2017-07-28T14:19:12.082Z,22.5
2017-07-28T14:20:13.515Z,22.5
2017-07-28T14:21:14.930Z,22.5
2017-07-28T14:22:16.441Z,22.5
2017-07-28T14:23:17.850Z,22.4
2017-07-28T14:24:19.274Z,22.3
2017-07-28T14:25:20.725Z,22.3
2017-07-28T14:26:22.137Z,22.3
2017-07-28T14:27:23.620Z,22.3
2017-07-28T14:28:25.025Z,22.3
2017-07-28T14:29:26.463Z,22.3
2017-07-28T14:30:28.405Z,22.3
2017-07-28T14:31:29.814Z,22.2
2017-07-28T14:32:31.221Z,22.2
2017-07-28T14:33:32.736Z,22.3
2017-07-28T14:34:34.139Z,22.2
2017-07-28T14:35:35.553Z,22.2
2017-07-28T14:36:37.055Z,22.2
2017-07-28T14:37:38.462Z,22.2
2017-07-28T14:38:39.880Z,22.3
2017-07-28T14:39:41.374Z,22.3
2017-07-28T14:40:42.782Z,22.3
2017-07-28T14:41:44.485Z,22.3
2017-07-28T14:42:45.867Z,22.4
2017-07-28T14:43:47.502Z,22.5
2017-07-28T14:44:48.911Z,22.6
2017-07-28T14:45:50.321Z,22.5
2017-07-28T14:46:51.796Z,22.7
2017-07-28T14:47:53.206Z,22.6
2017-07-28T14:48:54.667Z,22.7
2017-07-28T14:49:56.119Z,22.6
2017-07-28T14:50:57.555Z,22.7
2017-07-28T14:51:58.960Z,22.6
2017-07-28T14:53:00.445Z,22.7
2017-07-28T14:54:01.922Z,22.7
2017-07-28T14:55:03.354Z,22.7
2017-07-28T14:56:05.012Z,22.7
2017-07-28T14:57:06.422Z,22.7
2017-07-28T14:58:07.872Z,22.7
2017-07-28T14:59:09.285Z,22.6
2017-07-28T15:00:10.696Z,22.5
2017-07-28T15:01:12.204Z,22.7
2017-07-28T15:02:13.621Z,22.6
2017-07-28T15:03:15.070Z,22.6
2017-07-28T15:04:16.693Z,22.5
2017-07-28T15:05:18.124Z,22.5
2017-07-28T15:06:19.574Z,22.5
2017-07-28T15:07:20.983Z,22.5
2017-07-28T15:08:22.459Z,22.4
2017-07-28T15:09:23.864Z,22.4
2017-07-28T15:10:25.372Z,22.5
2017-07-28T15:11:26.779Z,22.4
2017-07-28T15:12:28.235Z,22.4
2017-07-28T15:13:29.657Z,22.5
2017-07-28T15:14:31.098Z,22.3
2017-07-28T15:15:32.505Z,22.3
2017-07-28T15:16:33.978Z,22.3
2017-07-28T15:17:35.417Z,22.3
2017-07-28T15:18:36.861Z,22.3
2017-07-28T15:19:38.291Z,22.2
2017-07-28T15:20:39.698Z,22.3
2017-07-28T15:21:41.181Z,22.2
2017-07-28T15:22:42.586Z,22.2
2017-07-28T15:23:43.996Z,22.1
2017-07-28T15:24:45.549Z,22.1
2017-07-28T15:25:46.953Z,22.0
2017-07-28T15:26:48.406Z,22.1
2017-07-28T15:27:49.813Z,22.1
2017-07-28T15:28:51.266Z,21.9
2017-07-28T15:29:52.674Z,22.0
2017-07-28T15:30:54.078Z,22.0
2017-07-28T15:31:55.615Z,22.0
2017-07-28T15:32:57.059Z,21.9
2017-07-28T15:33:58.491Z,22.0
2017-07-28T15:35:00.118Z,21.9
2017-07-28T15:36:01.536Z,21.9
2017-07-28T15:37:02.957Z,21.8
2017-07-28T15:38:04.656Z,21.9
2017-07-28T15:39:06.100Z,21.9
2017-07-28T15:40:07.523Z,21.9
2017-07-28T15:41:08.962Z,21.9
2017-07-28T15:42:10.390Z,21.9
2017-07-28T15:43:11.794Z,21.8
2017-07-28T15:44:13.283Z,21.9
2017-07-28T15:45:14.691Z,21.8
2017-07-28T15:46:16.120Z,21.8
2017-07-28T15:47:17.609Z,21.9
2017-07-28T15:48:19.023Z,21.8
2017-07-28T15:49:20.434Z,21.8
2017-07-28T15:50:21.930Z,21.7
2017-07-28T15:51:23.334Z,21.8
2017-07-28T15:52:24.744Z,21.8
2017-07-28T15:53:26.250Z,21.8
2017-07-28T15:54:27.660Z,21.6
2017-07-28T15:55:29.083Z,21.7
2017-07-28T15:56:30.569Z,21.6
2017-07-28T15:57:31.980Z,21.6
2017-07-28T15:58:33.389Z,21.7
2017-07-28T15:59:34.896Z,21.6
2017-07-28T16:00:36.315Z,21.6
2017-07-28T16:01:37.743Z,21.7
2017-07-28T16:02:39.213Z,21.7
2017-07-28T16:03:40.620Z,21.6
2017-07-28T16:04:42.129Z,21.7
2017-07-28T16:05:43.568Z,21.7
2017-07-28T16:06:45.004Z,21.6
2017-07-28T16:07:46.615Z,21.7
2017-07-28T16:08:48.040Z,21.6
2017-07-28T16:09:49.507Z,21.6
2017-07-28T16:10:50.994Z,21.6
2017-07-28T16:11:52.425Z,21.7
2017-07-28T16:12:53.908Z,21.6
2017-07-28T16:13:55.531Z,21.7
2017-07-28T16:14:56.935Z,21.7
2017-07-28T16:15:58.351Z,21.6
2017-07-28T16:16:59.840Z,21.5
2017-07-28T16:18:01.248Z,21.6
2017-07-28T16:19:02.653Z,21.6
2017-07-28T16:20:04.161Z,21.6
2017-07-28T16:21:05.565Z,21.5
2017-07-28T16:22:06.974Z,21.5
2017-07-28T16:23:08.482Z,21.5
2017-07-28T16:24:09.889Z,21.4
2017-07-28T16:25:11.323Z,21.4
2017-07-28T16:26:12.805Z,21.4
2017-07-28T16:27:14.207Z,21.4
2017-07-28T16:28:15.686Z,21.4
2017-07-28T16:29:17.117Z,21.4
2017-07-28T16:30:18.974Z,21.4
2017-07-28T16:31:20.384Z,21.3
2017-07-28T16:32:21.851Z,21.4
2017-07-28T16:33:23.271Z,21.4
2017-07-28T16:34:24.939Z,21.3
2017-07-28T16:35:26.342Z,21.4
2017-07-28T16:36:27.765Z,21.3
2017-07-28T16:37:29.263Z,21.3
2017-07-28T16:38:30.675Z,21.2
2017-07-28T16:39:32.086Z,21.3
2017-07-28T16:40:33.580Z,21.3
2017-07-28T16:41:34.988Z,21.3
2017-07-28T16:42:36.483Z,21.3
2017-07-28T16:43:37.889Z,21.3
2017-07-28T16:44:39.547Z,21.3
2017-07-28T16:45:40.975Z,21.3
2017-07-28T16:46:42.400Z,21.3
2017-07-28T16:47:44.071Z,21.3
2017-07-28T16:48:45.481Z,21.3
2017-07-28T16:49:46.897Z,21.2
2017-07-28T16:50:48.394Z,21.2
2017-07-28T16:51:49.799Z,21.2
2017-07-28T16:52:51.286Z,21.1
2017-07-28T16:53:52.707Z,21.2
2017-07-28T16:54:54.357Z,21.2
2017-07-28T16:55:55.784Z,21.2
2017-07-28T16:56:57.194Z,21.2
2017-07-28T16:57:58.680Z,21.2
2017-07-28T16:59:00.131Z,21.1
2017-07-28T17:00:01.538Z,21.1
2017-07-28T17:01:03.205Z,21.1
2017-07-28T17:02:04.611Z,21.1
2017-07-28T17:03:06.016Z,21.0
2017-07-28T17:04:07.525Z,21.0
2017-07-28T17:05:08.933Z,21.0
2017-07-28T17:06:10.341Z,21.0
2017-07-28T17:07:11.847Z,21.0
2017-07-28T17:08:13.307Z,20.9
2017-07-28T17:09:14.934Z,20.8
2017-07-28T17:10:16.335Z,20.9
2017-07-28T17:11:17.838Z,20.8
2017-07-28T17:12:19.229Z,20.7
2017-07-28T17:13:20.693Z,20.7
2017-07-28T17:14:22.100Z,20.8
2017-07-28T17:15:23.574Z,20.8
2017-07-28T17:16:24.981Z,20.7
2017-07-28T17:17:26.394Z,20.7
2017-07-28T17:18:27.967Z,20.7
2017-07-28T17:19:29.375Z,20.8
2017-07-28T17:20:30.782Z,20.8
2017-07-28T17:21:32.428Z,20.8
2017-07-28T17:22:33.836Z,20.8
2017-07-28T17:23:35.243Z,20.7
2017-07-28T17:24:36.742Z,20.8
2017-07-28T17:25:38.145Z,20.7
2017-07-28T17:26:39.557Z,20.7
2017-07-28T17:27:41.063Z,20.7
2017-07-28T17:28:42.470Z,20.7
2017-07-28T17:29:43.881Z,20.7
2017-07-28T17:30:45.388Z,20.7
2017-07-28T17:31:46.792Z,20.7
2017-07-28T17:32:48.196Z,20.6
2017-07-28T17:33:49.707Z,20.7
2017-07-28T17:34:51.119Z,20.6
2017-07-28T17:35:52.521Z,20.6
2017-07-28T17:36:54.050Z,20.6
2017-07-28T17:37:55.537Z,20.6
2017-07-28T17:38:56.948Z,20.6
2017-07-28T17:39:58.563Z,20.7
2017-07-28T17:40:59.971Z,20.6
2017-07-28T17:42:01.375Z,20.6
2017-07-28T17:43:02.875Z,20.6
2017-07-28T17:44:04.281Z,20.6
2017-07-28T17:45:05.764Z,20.6
2017-07-28T17:46:07.186Z,20.6
2017-07-28T17:47:08.589Z,20.6
2017-07-28T17:48:10.078Z,20.6
2017-07-28T17:49:11.485Z,20.6
2017-07-28T17:50:12.889Z,20.6
2017-07-28T17:51:14.396Z,20.6
2017-07-28T17:52:15.800Z,20.5
2017-07-28T17:53:17.241Z,20.6
2017-07-28T17:54:18.716Z,20.6
2017-07-28T17:55:20.132Z,20.6
2017-07-28T17:56:21.540Z,20.6
2017-07-28T17:57:23.037Z,20.5
2017-07-28T17:58:24.444Z,20.5
2017-07-28T17:59:25.919Z,20.4
2017-07-28T18:00:27.324Z,20.5
2017-07-28T18:01:28.805Z,20.5
2017-07-28T18:02:30.207Z,20.5
2017-07-28T18:03:31.677Z,20.4
2017-07-28T18:04:33.086Z,20.4
2017-07-28T18:05:34.560Z,20.4
2017-07-28T18:06:35.966Z,20.5
2017-07-28T18:07:37.440Z,20.5
2017-07-28T18:08:38.846Z,20.5
2017-07-28T18:09:40.320Z,20.5
2017-07-28T18:10:41.725Z,20.5
2017-07-28T18:11:43.129Z,20.5
2017-07-28T18:12:44.651Z,20.4
2017-07-28T18:13:46.058Z,20.4
2017-07-28T18:14:47.477Z,20.4
2017-07-28T18:15:48.966Z,20.3
2017-07-28T18:16:50.370Z,20.4
2017-07-28T18:17:51.776Z,20.3
2017-07-28T18:18:53.286Z,20.4
2017-07-28T18:19:54.691Z,20.3
2017-07-28T18:20:56.108Z,20.3
2017-07-28T18:21:57.605Z,20.3
2017-07-28T18:22:59.011Z,20.3
2017-07-28T18:24:00.437Z,20.3
2017-07-28T18:25:01.923Z,20.3
2017-07-28T18:26:03.341Z,20.2
2017-07-28T18:27:04.745Z,20.1
2017-07-28T18:28:06.244Z,20.2
2017-07-28T18:29:07.656Z,20.1
2017-07-28T18:30:09.137Z,20.1
2017-07-28T18:31:10.545Z,20.1
2017-07-28T18:32:12.007Z,20.1
2017-07-28T18:33:13.427Z,20.1
2017-07-28T18:34:14.888Z,20.1
2017-07-28T18:35:16.293Z,20.1
2017-07-28T18:36:17.768Z,20.1
2017-07-28T18:37:19.172Z,20.0
2017-07-28T18:38:20.649Z,20.0
2017-07-28T18:39:22.054Z,20.0
2017-07-28T18:40:23.533Z,20.0
2017-07-28T18:41:24.937Z,20.0
2017-07-28T18:42:26.415Z,20.0
2017-07-28T18:43:27.812Z,20.1
2017-07-28T18:44:29.217Z,20.0
2017-07-28T18:45:30.733Z,20.0
2017-07-28T18:46:32.149Z,19.9
2017-07-28T18:47:33.551Z,20.0
2017-07-28T18:48:35.052Z,19.9
2017-07-28T18:49:36.457Z,20.0
2017-07-28T18:50:37.933Z,19.9
2017-07-28T18:51:39.337Z,19.9
2017-07-28T18:52:41.277Z,19.9
2017-07-28T18:53:42.698Z,20.0
2017-07-28T18:54:44.317Z,19.9
2017-07-28T18:55:45.726Z,19.9
2017-07-28T18:56:47.204Z,19.9
2017-07-28T18:57:48.648Z,19.9
2017-07-28T18:58:50.274Z,19.8
2017-07-28T18:59:51.687Z,19.9
2017-07-28T19:00:53.157Z,19.7
2017-07-28T19:01:54.561Z,19.8
2017-07-28T19:02:56.103Z,19.8
2017-07-28T19:03:58.036Z,19.8
2017-07-28T19:04:59.558Z,19.7
2017-07-28T19:06:00.968Z,19.8
2017-07-28T19:07:02.443Z,19.8
2017-07-28T19:08:03.845Z,19.7
2017-07-28T19:09:05.258Z,19.7
2017-07-28T19:10:06.738Z,19.7
2017-07-28T19:11:08.144Z,19.7
2017-07-28T19:12:09.546Z,19.7
2017-07-28T19:13:11.061Z,19.7
2017-07-28T19:14:12.453Z,19.7
2017-07-28T19:15:13.930Z,19.7
2017-07-28T19:16:15.338Z,19.7
2017-07-28T19:17:17.046Z,19.7
2017-07-28T19:18:18.349Z,19.6
2017-07-28T19:19:19.745Z,19.6
2017-07-28T19:20:21.337Z,19.7
2017-07-28T19:21:22.739Z,19.6
2017-07-28T19:22:24.529Z,19.6
2017-07-28T19:23:26.067Z,19.6
2017-07-28T19:24:27.486Z,19.6
2017-07-28T19:25:28.882Z,19.5
2017-07-28T19:26:31.503Z,19.6
2017-07-28T19:27:32.897Z,19.5
2017-07-28T19:28:34.322Z,19.5
2017-07-28T19:29:35.947Z,19.5
2017-07-28T19:30:37.345Z,19.5
2017-07-28T19:31:38.773Z,19.4
2017-07-28T19:32:40.259Z,19.4
2017-07-28T19:33:41.780Z,19.4
2017-07-28T19:34:43.183Z,19.4
2017-07-28T19:35:44.799Z,19.4
2017-07-28T19:36:46.204Z,19.5
2017-07-28T19:37:47.606Z,19.4
2017-07-28T19:38:49.146Z,19.5
2017-07-28T19:39:50.525Z,19.3
2017-07-28T19:40:51.964Z,19.4
2017-07-28T19:41:53.532Z,19.4
2017-07-28T19:42:54.950Z,19.4
2017-07-28T19:43:56.362Z,19.4
2017-07-28T19:44:57.954Z,19.4
2017-07-28T19:45:59.355Z,19.4
2017-07-28T19:47:00.765Z,19.3
2017-07-28T19:48:02.277Z,19.4
2017-07-28T19:49:03.678Z,19.4
2017-07-28T19:50:05.265Z,19.4
2017-07-28T19:51:06.803Z,19.4
2017-07-28T19:52:09.351Z,19.4
2017-07-28T19:53:10.753Z,19.3
2017-07-28T19:54:12.351Z,19.3
2017-07-28T19:55:13.748Z,19.2
2017-07-28T19:56:15.150Z,19.3
2017-07-28T19:57:16.776Z,19.3
2017-07-28T19:58:18.178Z,19.3
2017-07-28T19:59:19.579Z,19.3
2017-07-28T20:00:21.376Z,19.3
2017-07-28T20:01:22.806Z,19.3
2017-07-28T20:02:24.398Z,19.4
2017-07-28T20:03:25.791Z,19.4
2017-07-28T20:04:27.471Z,19.2
2017-07-28T20:05:28.872Z,19.3
2017-07-28T20:06:30.556Z,19.3
2017-07-28T20:07:31.966Z,19.4
2017-07-28T20:08:33.682Z,19.3
2017-07-28T20:09:35.050Z,19.4
2017-07-28T20:10:36.748Z,19.3
2017-07-28T20:11:38.151Z,19.2
2017-07-28T20:12:40.157Z,19.3
2017-07-28T20:13:41.619Z,19.2
2017-07-28T20:14:43.319Z,19.4
2017-07-28T20:15:44.722Z,19.3
2017-07-28T20:16:46.395Z,19.3
2017-07-28T20:17:47.790Z,19.3
2017-07-28T20:18:49.478Z,19.3
2017-07-28T20:19:50.896Z,19.3
2017-07-28T20:20:52.613Z,19.3
2017-07-28T20:21:54.051Z,19.3
2017-07-28T20:22:55.676Z,19.2
2017-07-28T20:23:57.054Z,19.2
2017-07-28T20:24:58.768Z,19.2
2017-07-28T20:26:00.175Z,19.2
2017-07-28T20:27:01.819Z,19.2
2017-07-28T20:28:03.235Z,19.2
2017-07-28T20:29:04.908Z,19.2
2017-07-28T20:30:06.320Z,19.2
2017-07-28T20:31:07.994Z,19.1
2017-07-28T20:32:09.381Z,19.1
2017-07-28T20:33:11.099Z,19.0
2017-07-28T20:34:12.503Z,19.1
2017-07-28T20:35:13.905Z,19.0
2017-07-28T20:36:15.603Z,19.0
2017-07-28T20:37:17.004Z,19.0
2017-07-28T20:38:18.411Z,19.0
2017-07-28T20:39:19.926Z,19.0
2017-07-28T20:40:21.334Z,19.0
2017-07-28T20:41:22.735Z,18.9
2017-07-28T20:42:24.453Z,19.0
2017-07-28T20:43:25.859Z,18.9
2017-07-28T20:44:27.260Z,19.0
2017-07-28T20:45:28.774Z,18.9
2017-07-28T20:46:30.173Z,18.9
2017-07-28T20:47:31.575Z,18.9
2017-07-28T20:48:33.094Z,18.8
2017-07-28T20:49:34.502Z,18.8
2017-07-28T20:50:36.181Z,18.8
2017-07-28T20:51:37.587Z,18.8
2017-07-28T20:52:39.263Z,18.8
2017-07-28T20:53:40.672Z,18.8
2017-07-28T20:54:42.079Z,18.8
2017-07-28T20:55:43.804Z,18.7
2017-07-28T20:56:45.192Z,18.7
2017-07-28T20:57:46.589Z,18.7
2017-07-28T20:58:48.111Z,18.7
2017-07-28T20:59:49.513Z,18.7
2017-07-28T21:00:50.907Z,18.7
2017-07-28T21:01:52.435Z,18.7
2017-07-28T21:02:53.848Z,18.8
2017-07-28T21:03:55.302Z,18.6
2017-07-28T21:04:56.969Z,18.7
2017-07-28T21:05:58.372Z,18.7
2017-07-28T21:06:59.781Z,18.6
2017-07-28T21:08:01.489Z,18.7
2017-07-28T21:09:02.894Z,18.7
2017-07-28T21:10:04.294Z,18.6
2017-07-28T21:11:05.805Z,18.6
2017-07-28T21:12:07.205Z,18.6
2017-07-28T21:13:08.887Z,18.6
2017-07-28T21:14:10.341Z,18.6
2017-07-28T21:15:11.741Z,18.6
2017-07-28T21:16:13.411Z,18.6
2017-07-28T21:17:14.814Z,18.6
2017-07-28T21:18:16.222Z,18.7
2017-07-28T21:19:17.733Z,18.6
2017-07-28T21:20:19.140Z,18.6
2017-07-28T21:21:20.848Z,18.5
2017-07-28T21:22:22.246Z,18.6
2017-07-28T21:23:23.911Z,18.5
2017-07-28T21:24:25.310Z,18.5
2017-07-28T21:25:26.990Z,18.6
2017-07-28T21:26:28.392Z,18.5
2017-07-28T21:27:30.077Z,18.6
2017-07-28T21:28:31.472Z,18.5
2017-07-28T21:29:33.199Z,18.6
2017-07-28T21:30:34.588Z,18.5
2017-07-28T21:31:36.247Z,18.6
2017-07-28T21:32:37.716Z,18.5
2017-07-28T21:33:39.331Z,18.6
2017-07-28T21:34:40.735Z,18.5
2017-07-28T21:35:42.137Z,18.5
2017-07-28T21:36:43.654Z,18.6
2017-07-28T21:37:45.096Z,18.4
2017-07-28T21:38:46.496Z,18.5
2017-07-28T21:39:48.182Z,18.4
2017-07-28T21:40:49.586Z,18.4
2017-07-28T21:41:51.017Z,18.4
2017-07-28T21:42:52.704Z,18.5
2017-07-28T21:43:54.101Z,18.5
2017-07-28T21:44:55.546Z,18.4
2017-07-28T21:45:57.231Z,18.4
2017-07-28T21:46:58.637Z,18.4